Latest Coastal Weather Observations for Rundle Island

IDQ60701

Issued at 1:12 am EST Thursday 11 August 2022 (issued every 10 minutes, with the page automatically refreshed every 10 minutes)

About coastal observations | Map of coastal stations | Coastal observations for QLD | Marine services | Other Formats
Station Details ID: 039322 Name: RUNDLE ISLAND Lat: -23.53 Lon: 151.28 Height: 19.8 m
Data from the previous 72 hours. | See also: Recent months at Rundle Island
Date/Time
EST
Wind Sea
Height
m
Swell Vis
km
Cloud Weather Temp
°C
Press
MSL
hPa
Rain since
9am
mm
Dir  Spd
kts
Gust
kts
Height
m
Period
s
Dir
11/01:00am SE 17 19 - - - - - - - 18.0 1022.0 -
11/12:30am SE 18 19 - - - - - - - 18.3 1022.1 -
11/12:00am SE 17 20 - - - - - - - 18.6 1022.3 -
 
Date/Time
EST
Wind Sea
Height
m
Swell Vis
km
Cloud Weather Temp
°C
Press
MSL
hPa
Rain since
9am
mm
Dir  Spd
kts
Gust
kts
Height
m
Period
s
Dir
10/11:30pm SE 17 19 - - - - - - - 18.8 1022.4 -
10/11:00pm SE 20 23 - - - - - - - 19.1 1022.5 -
10/10:30pm SE 20 23 - - - - - - - 19.1 1022.5 -
10/10:00pm SE 20 23 - - - - - - - 19.2 1022.7 -
10/09:30pm SE 19 22 - - - - - - - 19.3 1023.0 -
10/09:00pm SE 19 21 - - - - - - - 19.4 1023.1 -
10/08:30pm ESE 18 20 - - - - - - - 19.4 1023.1 -
10/08:00pm ESE 17 20 - - - - - - - 19.6 1022.9 -
10/07:30pm ESE 19 20 - - - - - - - 19.6 1022.6 -
10/07:00pm ESE 19 22 - - - - - - - 19.7 1022.2 -
10/06:30pm ESE 19 21 - - - - - - - 19.8 1022.0 -
10/06:00pm ESE 17 20 - - - - - - - 19.7 1021.5 -
10/05:30pm ESE 15 17 - - - - - - - 19.6 1021.3 -
10/05:00pm ESE 16 18 - - - - - - - 19.8 1021.1 -
10/04:30pm ESE 17 19 - - - - - - - 19.8 1020.8 -
10/04:00pm ESE 16 17 - - - - - - - 19.7 1020.7 -
10/03:30pm ESE 15 16 - - - - - - - 19.6 1020.8 -
10/03:00pm ESE 14 16 - - - - - - - 19.5 1020.9 -
10/02:30pm ESE 14 16 - - - - - - - 19.4 1021.2 -
10/02:00pm ESE 14 17 - - - - - - - 19.3 1021.3 -
10/01:30pm SE 15 17 - - - - - - - 19.1 1021.7 -
10/01:00pm SE 15 17 - - - - - - - 19.0 1021.8 -
10/12:30pm SE 15 18 - - - - - - - 19.3 1022.1 -
10/12:00pm SE 18 20 - - - - - - - 19.0 1022.3 -
10/11:30am SE 17 19 - - - - - - - 18.7 1022.7 -
10/11:00am SSE 17 20 - - - - - - - 18.6 1022.9 -
10/10:30am SSE 17 18 - - - - - - - 18.1 1023.2 -
10/10:00am SSE 17 19 - - - - - - - 17.8 1023.1 -
10/09:30am SSE 16 19 - - - - - - - 17.7 1023.3 -
10/09:00am SSE 17 19 - - - - - - - 17.4 1023.2 -
10/08:30am SSE 14 17 - - - - - - - 17.3 1023.1 -
10/08:00am S 12 13 - - - - - - - 16.7 1022.8 -
10/07:30am S 13 14 - - - - - - - 16.6 1022.5 -
10/07:00am S 11 13 - - - - - - - 16.8 1022.0 -
10/06:30am S 11 13 - - - - - - - 16.7 1021.5 -
10/06:00am S 10 12 - - - - - - - 16.1 1021.1 -
10/05:30am S 11 12 - - - - - - - 16.2 1020.7 -
10/05:00am S 11 13 - - - - - - - 16.4 1020.5 -
10/04:30am S 13 14 - - - - - - - 16.5 1020.1 -
10/04:00am S 12 13 - - - - - - - 17.0 1020.0 -
10/03:30am S 11 14 - - - - - - - 17.0 1020.1 -
10/03:00am S 12 14 - - - - - - - 17.4 1019.9 -
10/02:30am S 11 13 - - - - - - - 17.5 1020.1 -
10/02:00am SSW 12 13 - - - - - - - 17.5 1020.1 -
10/01:30am SSW 12 13 - - - - - - - 17.1 1020.2 -
10/01:00am S 7 8 - - - - - - - 18.0 1020.3 -
10/12:30am S 6 7 - - - - - - - 18.2 1020.4 -
10/12:00am SSW 5 6 - - - - - - - 18.3 1020.6 -
 
Date/Time
EST
Wind Sea
Height
m
Swell Vis
km
Cloud Weather Temp
°C
Press
MSL
hPa
Rain since
9am
mm
Dir  Spd
kts
Gust
kts
Height
m
Period
s
Dir
09/11:30pm SSE 5 5 - - - - - - - 19.2 1020.7 -
09/11:00pm SE 5 6 - - - - - - - 19.3 1020.7 -
09/10:30pm ESE 4 5 - - - - - - - 19.4 1020.7 -
09/10:00pm ESE 5 6 - - - - - - - 19.5 1020.6 -
09/09:30pm ESE 5 5 - - - - - - - 19.6 1020.6 -
09/09:00pm ESE 5 5 - - - - - - - 19.6 1020.5 -
09/08:30pm ESE 5 6 - - - - - - - 19.6 1020.5 -
09/08:00pm ESE 6 6 - - - - - - - 19.7 1020.2 -
09/07:30pm ENE 4 4 - - - - - - - 19.6 1019.7 -
09/07:00pm NNE 4 5 - - - - - - - 19.7 1019.3 -
09/06:30pm NNE 2 3 - - - - - - - 19.8 1018.9 -
09/06:00pm E 7 8 - - - - - - - 19.7 1018.6 -
09/05:30pm E 8 9 - - - - - - - 19.9 1018.2 -
09/05:00pm E 7 8 - - - - - - - 19.9 1017.9 -
09/04:30pm E 7 8 - - - - - - - 19.6 1017.8 -
09/04:00pm ESE 7 8 - - - - - - - 19.7 1017.6 -
09/03:30pm ESE 7 8 - - - - - - - 19.6 1017.6 -
09/03:00pm ESE 8 8 - - - - - - - 19.8 1017.5 -
09/02:30pm ESE 9 10 - - - - - - - 19.7 1017.7 -
09/02:00pm ESE 9 10 - - - - - - - 19.8 1017.9 -
09/01:30pm SE 9 10 - - - - - - - 20.0 1018.2 -
09/01:00pm SSE 9 11 - - - - - - - 20.1 1018.7 -
09/12:30pm SSE 11 12 - - - - - - - 19.6 1019.2 -
09/12:00pm SSE 11 12 - - - - - - - 19.5 1019.5 -
09/11:30am S 12 13 - - - - - - - 19.0 1020.0 -
09/11:00am S 13 14 - - - - - - - 18.8 1020.5 -
09/10:30am S 13 16 - - - - - - - 18.5 1020.8 -
09/10:00am S 13 16 - - - - - - - 17.9 1021.0 -
09/09:30am S 14 16 - - - - - - - 17.4 1021.0 -
09/09:00am S 15 17 - - - - - - - 16.6 1021.0 -
09/08:30am S 14 16 - - - - - - - 16.2 1020.8 -
09/08:00am SSW 13 17 - - - - - - - 15.9 1020.6 -
09/07:30am S 14 16 - - - - - - - 15.5 1020.4 -
09/07:00am S 14 16 - - - - - - - 15.8 1020.1 -
09/06:30am SSW 14 15 - - - - - - - 15.5 1019.8 -
09/06:00am SSW 13 15 - - - - - - - 15.5 1019.5 -
09/05:30am SSW 13 15 - - - - - - - 15.9 1019.1 -
09/05:00am SSW 11 13 - - - - - - - 15.9 1019.0 -
09/04:30am SSW 11 13 - - - - - - - 16.4 1018.7 -
09/04:00am S 11 13 - - - - - - - 16.7 1018.6 -
09/03:30am SSW 12 13 - - - - - - - 16.9 1018.7 -
09/03:00am SSW 11 12 - - - - - - - 17.0 1018.5 -
09/02:30am SSW 10 11 - - - - - - - 17.2 1018.6 -
09/02:00am S 10 12 - - - - - - - 17.0 1018.9 -
09/01:30am S 9 10 - - - - - - - 17.1 1019.2 -
09/01:00am S 11 12 - - - - - - - 17.6 1019.3 -
09/12:30am S 9 10 - - - - - - - 17.7 1019.4 -
09/12:00am SSW 8 9 - - - - - - - 18.4 1019.3 -
 
Date/Time
EST
Wind Sea
Height
m
Swell Vis
km
Cloud Weather Temp
°C
Press
MSL
hPa
Rain since
9am
mm
Dir  Spd
kts
Gust
kts
Height
m
Period
s
Dir
08/11:30pm SW 6 7 - - - - - - - 17.8 1019.3 -
08/11:00pm SW 5 6 - - - - - - - 17.6 1019.4 -
08/10:30pm SSW 5 5 - - - - - - - 18.7 1019.4 -
08/10:00pm S 6 7 - - - - - - - 18.9 1019.5 -
08/09:30pm SSE 8 10 - - - - - - - 19.5 1019.4 -
08/09:00pm SSE 8 10 - - - - - - - 19.7 1019.2 -
08/08:30pm SE 6 7 - - - - - - - 19.5 1019.1 -
08/08:00pm SE 9 10 - - - - - - - 19.6 1018.8 -
08/07:30pm SE 10 11 - - - - - - - 19.7 1018.6 -
08/07:00pm SE 11 13 - - - - - - - 19.6 1018.2 -
08/06:30pm SSE 15 17 - - - - - - - 20.4 1017.6 -
08/06:00pm S 15 18 - - - - - - - 20.5 1017.3 -
08/05:30pm SSE 14 17 - - - - - - - 20.4 1017.1 -
08/05:00pm SE 12 14 - - - - - - - 20.1 1017.0 -
08/04:30pm SE 13 15 - - - - - - - 20.3 1016.8 -
08/04:00pm SSE 13 15 - - - - - - - 20.4 1016.6 -
08/03:30pm SE 13 15 - - - - - - - 19.9 1016.4 -
08/03:00pm ESE 12 13 - - - - - - - 19.4 1016.4 -
08/02:30pm SE 9 10 - - - - - - - 19.7 1016.7 -
08/02:00pm SE 11 12 - - - - - - - 19.6 1016.9 -
08/01:30pm ESE 10 12 - - - - - - - 19.4 1017.2 -
08/01:00pm SE 11 13 - - - - - - - 19.2 1017.6 -
08/12:30pm SE 9 12 - - - - - - - 19.2 1018.2 -
08/12:00pm SE 9 12 - - - - - - - 19.2 1018.5 -
08/11:30am SSE 11 14 - - - - - - - 18.9 1019.2 -
08/11:00am SSE 12 13 - - - - - - - 18.7 1019.7 -
08/10:30am S 10 13 - - - - - - - 18.4 1020.3 -
08/10:00am SSE 11 13 - - - - - - - 17.7 1020.3 -
08/09:30am SSE 12 14 - - - - - - - 17.4 1020.4 -
08/09:00am S 9 11 - - - - - - - 17.1 1020.3 -
08/08:30am S 13 15 - - - - - - - 17.1 1020.0 -
08/08:00am S 14 16 - - - - - - - 17.1 1019.7 -
08/07:30am S 12 13 - - - - - - - 16.9 1019.5 -
08/07:00am S 9 11 - - - - - - - 16.9 1019.2 -
08/06:30am S 8 10 - - - - - - - 16.5 1018.8 -
08/06:00am S 8 9 - - - - - - - 17.0 1018.4 -
08/05:30am S 10 12 - - - - - - - 17.3 1017.9 -
08/05:00am S 12 13 - - - - - - - 17.3 1017.5 -
08/04:30am S 11 13 - - - - - - - 17.7 1017.2 -
08/04:00am S 10 12 - - - - - - - 17.4 1017.2 -
08/03:30am S 11 12 - - - - - - - 17.3 1017.0 -
08/03:00am S 9 10 - - - - - - - 17.4 1017.1 -
08/02:30am S 8 10 - - - - - - - 17.8 1017.0 -
08/02:00am S 6 7 - - - - - - - 17.8 1017.2 -
08/01:30am S 7 7 - - - - - - - 17.9 1017.3 -

Other formats

Comma delimited format used in spreadsheet applications
http://www.bom.gov.au/fwo/IDQ60701/IDQ60701.94378.axf

JavaScript Object Notation format (JSON) in row-major order
http://www.bom.gov.au/fwo/IDQ60701/IDQ60701.94378.json

Data quality

Most of these data are generated automatically and are frequently updated. Quality checks on data are not normally performed. It is possible for incorrect values to appear. Refer to information at About Latest Weather Observations and please check the disclaimer before using these data.